Time,TemperatureF,DewpointF,PressureIn,WindDirection,WindDirectionDegrees,WindSpeedMPH,WindSpeedGustMPH,Humidity,HourlyPrecipIn,Conditions,Clouds,dailyrainin,SoftwareType,DateUTC
2013-01-22 00:12:00,31.0,-99.9,29.76,North,-999,-999.0,-999.0,-999,-99.99,,,-99.99,,2013-01-22 05:12:00,
2013-01-22 00:43:00,-999.0,-99.9,29.72,North,10,4.0,5.0,-999,-99.99,,,-99.99,,2013-01-22 05:43:00,
2013-01-22 00:53:00,30.0,-99.9,29.72,North,354,4.0,6.0,-999,-99.99,,,-99.99,,2013-01-22 05:53:00,
2013-01-22 01:02:00,-999.0,-99.9,29.73,North,350,4.0,6.0,-999,-99.99,,,-99.99,,2013-01-22 06:02:00,
2013-01-22 01:12:00,30.0,-99.9,29.73,North,349,4.0,5.0,-999,-99.99,,,-99.99,,2013-01-22 06:12:00,
2013-01-22 01:22:00,-999.0,-99.9,29.73,NNW,342,3.0,5.0,-999,-99.99,,,-99.99,,2013-01-22 06:22:00,
2013-01-22 01:33:00,-999.0,-99.9,29.74,North,358,4.0,6.0,-999,-99.99,,,-99.99,,2013-01-22 06:33:00,
2013-01-22 01:43:00,29.0,-99.9,29.74,North,355,4.0,5.0,-999,-99.99,,,-99.99,,2013-01-22 06:43:00,
2013-01-22 01:53:00,-999.0,-99.9,29.74,NNW,342,3.0,5.0,-999,-99.99,,,-99.99,,2013-01-22 06:53:00,
2013-01-22 02:03:00,-999.0,-99.9,29.75,NNW,348,2.0,5.0,-999,-99.99,,,-99.99,,2013-01-22 07:03:00,
2013-01-22 02:12:00,-999.0,-99.9,29.75,NNW,341,3.0,4.0,-999,-99.99,,,-99.99,,2013-01-22 07:12:00,
2013-01-22 02:22:00,-999.0,-99.9,29.75,NNW,343,3.0,4.0,-999,-99.99,,,-99.99,,2013-01-22 07:22:00,
2013-01-22 02:33:00,-999.0,-99.9,29.74,NNW,337,3.0,5.0,-999,-99.99,,,-99.99,,2013-01-22 07:33:00,
2013-01-22 02:43:00,29.0,-99.9,29.74,NW,326,3.0,4.0,-999,-99.99,,,-99.99,,2013-01-22 07:43:00,
2013-01-22 02:53:00,-999.0,-99.9,29.74,NNW,346,3.0,5.0,-999,-99.99,,,-99.99,,2013-01-22 07:53:00,
2013-01-22 03:02:00,-999.0,-99.9,29.73,NNW,341,3.0,5.0,-999,-99.99,,,-99.99,,2013-01-22 08:02:00,
2013-01-22 03:12:00,29.0,-99.9,29.72,North,350,2.0,4.0,-999,-99.99,,,-99.99,,2013-01-22 08:12:00,
2013-01-22 03:22:00,-999.0,-99.9,29.72,NNW,344,3.0,5.0,-999,-99.99,,,-99.99,,2013-01-22 08:22:00,
2013-01-22 03:33:00,-999.0,-99.9,29.72,NNW,342,4.0,5.0,-999,-99.99,,,-99.99,,2013-01-22 08:33:00,
2013-01-22 03:43:00,-999.0,-99.9,29.72,NNW,337,3.0,4.0,-999,-99.99,,,-99.99,,2013-01-22 08:43:00,
2013-01-22 03:53:00,-999.0,-99.9,29.72,NNW,328,3.0,5.0,-999,-99.99,,,-99.99,,2013-01-22 08:53:00,
2013-01-22 04:02:00,-999.0,-99.9,29.72,NNW,328,3.0,4.0,-999,-99.99,,,-99.99,,2013-01-22 09:02:00,
2013-01-22 04:12:00,28.0,-99.9,29.71,NNW,337,3.0,4.0,-999,-99.99,,,-99.99,,2013-01-22 09:12:00,
2013-01-22 04:23:00,-999.0,-99.9,29.70,NW,324,2.0,3.0,-999,-99.99,,,-99.99,,2013-01-22 09:23:00,
2013-01-22 04:33:00,-999.0,-99.9,29.70,NW,322,3.0,4.0,-999,-99.99,,,-99.99,,2013-01-22 09:33:00,
2013-01-22 04:43:00,28.0,-99.9,29.70,NW,320,3.0,4.0,-999,-99.99,,,-99.99,,2013-01-22 09:43:00,
2013-01-22 04:53:00,-999.0,-99.9,29.71,NW,318,3.0,4.0,-999,-99.99,,,-99.99,,2013-01-22 09:53:00,
2013-01-22 05:03:00,-999.0,-99.9,29.71,NW,315,3.0,4.0,-999,-99.99,,,-99.99,,2013-01-22 10:03:00,
2013-01-22 05:12:00,-999.0,-99.9,29.71,NW,309,3.0,5.0,-999,-99.99,,,-99.99,,2013-01-22 10:12:00,
2013-01-22 05:22:00,-999.0,-99.9,29.71,NW,304,3.0,5.0,-999,-99.99,,,-99.99,,2013-01-22 10:22:00,
2013-01-22 05:33:00,-999.0,-99.9,29.72,NW,308,3.0,4.0,-999,-99.99,,,-99.99,,2013-01-22 10:33:00,
2013-01-22 05:43:00,27.0,-99.9,29.72,WNW,295,2.0,5.0,-999,-99.99,,,-99.99,,2013-01-22 10:43:00,
2013-01-22 05:53:00,-999.0,-99.9,29.73,WNW,293,4.0,4.0,-999,-99.99,,,-99.99,,2013-01-22 10:53:00,
2013-01-22 06:03:00,-999.0,-99.9,29.73,WNW,286,3.0,6.0,-999,-99.99,,,-99.99,,2013-01-22 11:03:00,
2013-01-22 06:12:00,27.0,-99.9,29.73,WNW,288,2.0,4.0,-999,-99.99,,,-99.99,,2013-01-22 11:12:00,
2013-01-22 06:23:00,-999.0,-99.9,29.73,WNW,294,3.0,5.0,-999,-99.99,,,-99.99,,2013-01-22 11:23:00,
2013-01-22 06:33:00,-999.0,-99.9,29.74,NW,306,4.0,6.0,-999,-99.99,,,-99.99,,2013-01-22 11:33:00,
2013-01-22 06:43:00,27.0,-99.9,29.74,WNW,289,4.0,5.0,-999,-99.99,,,-99.99,,2013-01-22 11:43:00,
2013-01-22 06:54:00,-999.0,-99.9,29.74,NW,304,11.0,17.0,-999,-99.99,,,-99.99,,2013-01-22 11:54:00,
2013-01-22 07:04:00,-999.0,-99.9,29.75,NW,305,11.0,20.0,-999,-99.99,,,-99.99,,2013-01-22 12:04:00,
2013-01-22 07:13:00,27.0,-99.9,29.75,WNW,297,11.0,20.0,-999,-99.99,,,-99.99,,2013-01-22 12:13:00,
2013-01-22 07:23:00,-999.0,-99.9,29.75,WNW,297,11.0,15.0,-999,-99.99,,,-99.99,,2013-01-22 12:23:00,
2013-01-22 07:33:00,-999.0,-99.9,29.75,WNW,297,11.0,15.0,-999,-99.99,,,-99.99,,2013-01-22 12:33:00,
2013-01-22 07:43:00,27.0,-99.9,29.76,WNW,303,15.0,22.0,-999,-99.99,,,-99.99,,2013-01-22 12:43:00,
2013-01-22 07:53:00,-999.0,-99.9,29.77,NW,311,15.0,23.0,-999,-99.99,,,-99.99,,2013-01-22 12:53:00,
2013-01-22 08:04:00,-999.0,-99.9,29.78,NW,308,13.0,24.0,-999,-99.99,,,-99.99,,2013-01-22 13:04:00,
2013-01-22 08:14:00,27.0,-99.9,29.78,NW,312,16.0,22.0,-999,-99.99,,,-99.99,,2013-01-22 13:14:00,
2013-01-22 08:24:00,-999.0,-99.9,29.78,NW,324,15.0,23.0,-999,-99.99,,,-99.99,,2013-01-22 13:24:00,
2013-01-22 08:34:00,-999.0,-99.9,29.78,NW,307,17.0,26.0,-999,-99.99,,,-99.99,,2013-01-22 13:34:00,
2013-01-22 08:43:00,25.0,-99.9,29.78,NW,311,15.0,26.0,-999,-99.99,,,-99.99,,2013-01-22 13:43:00,
2013-01-22 08:54:00,-999.0,-99.9,29.79,NW,315,13.0,24.0,-999,-99.99,,,-99.99,,2013-01-22 13:54:00,
2013-01-22 09:03:00,-999.0,-99.9,29.80,NW,313,15.0,23.0,-999,-99.99,,,-99.99,,2013-01-22 14:03:00,
2013-01-22 09:13:00,25.0,-99.9,29.81,NW,320,14.0,24.0,-999,-99.99,,,-99.99,,2013-01-22 14:13:00,
2013-01-22 09:23:00,-999.0,-99.9,29.81,NW,307,17.0,22.0,-999,-99.99,,,-99.99,,2013-01-22 14:23:00,
2013-01-22 09:34:00,-999.0,-99.9,29.82,NW,308,14.0,26.0,-999,-99.99,,,-99.99,,2013-01-22 14:34:00,
2013-01-22 09:45:00,25.0,-99.9,29.82,NW,311,16.0,25.0,-999,-99.99,,,-99.99,,2013-01-22 14:45:00,
2013-01-22 09:54:00,-999.0,-99.9,29.82,NW,314,16.0,25.0,-999,-99.99,,,-99.99,,2013-01-22 14:54:00,
2013-01-22 10:04:00,-999.0,-99.9,29.83,NW,310,17.0,26.0,-999,-99.99,,,-99.99,,2013-01-22 15:04:00,
2013-01-22 10:13:00,25.0,-99.9,29.83,NW,313,17.0,28.0,-999,-99.99,,,-99.99,,2013-01-22 15:13:00,
2013-01-22 10:24:00,-999.0,-99.9,29.84,NW,304,15.0,25.0,-999,-99.99,,,-99.99,,2013-01-22 15:24:00,
2013-01-22 10:34:00,-999.0,-99.9,29.84,NW,319,17.0,21.0,-999,-99.99,,,-99.99,,2013-01-22 15:34:00,
2013-01-22 10:44:00,-999.0,-99.9,29.84,NW,319,17.0,21.0,-999,-99.99,,,-99.99,,2013-01-22 15:44:00,
2013-01-22 10:54:00,-999.0,-99.9,29.85,NW,317,13.0,20.0,-999,-99.99,,,-99.99,,2013-01-22 15:54:00,
2013-01-22 11:04:00,-999.0,-99.9,29.85,NW,307,16.0,23.0,-999,-99.99,,,-99.99,,2013-01-22 16:04:00,
2013-01-22 11:13:00,25.0,-99.9,29.85,WNW,303,13.0,23.0,-999,-99.99,,,-99.99,,2013-01-22 16:13:00,
2013-01-22 11:24:00,-999.0,-99.9,29.85,NW,304,13.0,23.0,-999,-99.99,,,-99.99,,2013-01-22 16:24:00,
2013-01-22 11:34:00,-999.0,-99.9,29.85,NW,317,12.0,23.0,-999,-99.99,,,-99.99,,2013-01-22 16:34:00,
2013-01-22 11:43:00,-999.0,-99.9,29.85,WNW,302,15.0,26.0,-999,-99.99,,,-99.99,,2013-01-22 16:43:00,
2013-01-22 11:54:00,24.0,-99.9,29.86,NW,309,14.0,26.0,-999,-99.99,,,-99.99,,2013-01-22 16:54:00,
2013-01-22 12:04:00,24.0,-99.9,29.86,NW,309,14.0,26.0,-999,-99.99,,,-99.99,,2013-01-22 17:04:00,
2013-01-22 12:13:00,25.0,-99.9,29.85,NW,306,15.0,21.0,-999,-99.99,,,-99.99,,2013-01-22 17:13:00,
2013-01-22 12:24:00,-999.0,-99.9,29.85,NW,305,14.0,26.0,-999,-99.99,,,-99.99,,2013-01-22 17:24:00,
2013-01-22 12:35:00,-999.0,-99.9,29.85,NW,304,11.0,24.0,-999,-99.99,,,-99.99,,2013-01-22 17:35:00,
2013-01-22 12:44:00,26.0,-99.9,29.85,WNW,303,10.0,17.0,-999,-99.99,,,-99.99,,2013-01-22 17:44:00,
2013-01-22 12:54:00,-999.0,-99.9,29.85,WNW,296,15.0,21.0,-999,-99.99,,,-99.99,,2013-01-22 17:54:00,
2013-01-22 13:04:00,-999.0,-99.9,29.86,NW,306,14.0,20.0,-999,-99.99,,,-99.99,,2013-01-22 18:04:00,
2013-01-22 13:13:00,26.0,-99.9,29.86,WNW,301,10.0,23.0,-999,-99.99,,,-99.99,,2013-01-22 18:13:00,
2013-01-22 13:24:00,-999.0,-99.9,29.86,WNW,297,10.0,23.0,-999,-99.99,,,-99.99,,2013-01-22 18:24:00,
2013-01-22 13:34:00,-999.0,-99.9,29.86,WNW,292,15.0,23.0,-999,-99.99,,,-99.99,,2013-01-22 18:34:00,
2013-01-22 13:44:00,25.0,-99.9,29.86,WNW,299,15.0,22.0,-999,-99.99,,,-99.99,,2013-01-22 18:44:00,
2013-01-22 13:54:00,-999.0,-99.9,29.87,NW,308,13.0,22.0,-999,-99.99,,,-99.99,,2013-01-22 18:54:00,
2013-01-22 14:04:00,-999.0,-99.9,29.86,WNW,288,13.0,22.0,-999,-99.99,,,-99.99,,2013-01-22 19:04:00,
2013-01-22 14:14:00,26.0,-99.9,29.86,WNW,290,9.0,21.0,-999,-99.99,,,-99.99,,2013-01-22 19:14:00,
2013-01-22 14:24:00,-999.0,-99.9,29.86,WNW,293,10.0,22.0,-999,-99.99,,,-99.99,,2013-01-22 19:24:00,
2013-01-22 14:34:00,-999.0,-99.9,29.86,WNW,293,10.0,22.0,-999,-99.99,,,-99.99,,2013-01-22 19:34:00,
2013-01-22 14:44:00,26.0,-99.9,29.87,WNW,297,13.0,17.0,-999,-99.99,,,-99.99,,2013-01-22 19:44:00,
2013-01-22 14:54:00,-999.0,-99.9,29.87,NW,311,14.0,25.0,-999,-99.99,,,-99.99,,2013-01-22 19:54:00,
2013-01-22 15:04:00,-999.0,-99.9,29.88,WNW,282,11.0,24.0,-999,-99.99,,,-99.99,,2013-01-22 20:04:00,
2013-01-22 15:13:00,25.0,-99.9,29.88,West,273,11.0,22.0,-999,-99.99,,,-99.99,,2013-01-22 20:13:00,
2013-01-22 15:23:00,-999.0,-99.9,29.89,WNW,289,12.0,19.0,-999,-99.99,,,-99.99,,2013-01-22 20:23:00,
2013-01-22 15:34:00,-999.0,-99.9,29.89,WNW,296,10.0,20.0,-999,-99.99,,,-99.99,,2013-01-22 20:34:00,
2013-01-22 15:43:00,24.0,-99.9,29.89,WNW,290,10.0,18.0,-999,-99.99,,,-99.99,,2013-01-22 20:43:00,
2013-01-22 15:54:00,-999.0,-99.9,29.89,West,281,11.0,14.0,-999,-99.99,,,-99.99,,2013-01-22 20:54:00,
2013-01-22 16:04:00,-999.0,-99.9,29.90,WNW,297,10.0,18.0,-999,-99.99,,,-99.99,,2013-01-22 21:04:00,
2013-01-22 16:13:00,-999.0,-99.9,29.90,WNW,293,11.0,17.0,-999,-99.99,,,-99.99,,2013-01-22 21:13:00,
2013-01-22 16:23:00,-999.0,-99.9,29.91,WNW,286,8.0,14.0,-999,-99.99,,,-99.99,,2013-01-22 21:23:00,
2013-01-22 16:34:00,-999.0,-99.9,29.91,West,276,9.0,14.0,-999,-99.99,,,-99.99,,2013-01-22 21:34:00,
2013-01-22 16:44:00,23.0,-99.9,29.92,West,268,5.0,13.0,-999,-99.99,,,-99.99,,2013-01-22 21:44:00,
2013-01-22 16:53:00,-999.0,-99.9,29.92,West,259,7.0,13.0,-999,-99.99,,,-99.99,,2013-01-22 21:53:00,
2013-01-22 17:03:00,-999.0,-99.9,29.93,WNW,283,7.0,14.0,-999,-99.99,,,-99.99,,2013-01-22 22:03:00,
2013-01-22 17:13:00,-999.0,-99.9,29.93,West,275,8.0,12.0,-999,-99.99,,,-99.99,,2013-01-22 22:13:00,
2013-01-22 17:23:00,22.0,-99.9,29.93,West,272,7.0,14.0,-999,-99.99,,,-99.99,,2013-01-22 22:23:00,
2013-01-22 17:33:00,-999.0,-99.9,29.94,West,267,7.0,13.0,-999,-99.99,,,-99.99,,2013-01-22 22:33:00,
2013-01-22 17:44:00,22.0,-99.9,29.94,West,268,6.0,14.0,-999,-99.99,,,-99.99,,2013-01-22 22:44:00,
2013-01-22 17:53:00,-999.0,-99.9,29.95,West,271,6.0,12.0,-999,-99.99,,,-99.99,,2013-01-22 22:53:00,
2013-01-22 18:03:00,-999.0,-99.9,29.96,West,275,6.0,14.0,-999,-99.99,,,-99.99,,2013-01-22 23:03:00,
2013-01-22 18:13:00,22.0,-99.9,29.96,West,272,7.0,15.0,-999,-99.99,,,-99.99,,2013-01-22 23:13:00,
2013-01-22 18:24:00,-999.0,-99.9,29.96,WNW,282,9.0,15.0,-999,-99.99,,,-99.99,,2013-01-22 23:24:00,
2013-01-22 18:34:00,-999.0,-99.9,29.96,West,264,7.0,13.0,-999,-99.99,,,-99.99,,2013-01-22 23:34:00,
2013-01-22 18:43:00,22.0,-99.9,29.97,West,279,4.0,11.0,-999,-99.99,,,-99.99,,2013-01-22 23:43:00,
2013-01-22 18:53:00,-999.0,-99.9,29.97,NW,307,6.0,13.0,-999,-99.99,,,-99.99,,2013-01-22 23:53:00,
2013-01-22 19:03:00,-999.0,-99.9,29.98,NNW,328,12.0,17.0,-999,-99.99,,,-99.99,,2013-01-23 00:03:00,
2013-01-22 19:13:00,23.0,-99.9,29.98,NW,315,13.0,20.0,-999,-99.99,,,-99.99,,2013-01-23 00:13:00,
2013-01-22 19:23:00,-999.0,-99.9,29.98,NW,316,10.0,18.0,-999,-99.99,,,-99.99,,2013-01-23 00:23:00,
2013-01-22 19:33:00,-999.0,-99.9,29.99,NNW,331,13.0,20.0,-999,-99.99,,,-99.99,,2013-01-23 00:33:00,
2013-01-22 19:43:00,-999.0,-99.9,30.00,WNW,301,12.0,20.0,-999,-99.99,,,-99.99,,2013-01-23 00:43:00,
2013-01-22 19:53:00,-999.0,-99.9,30.00,NNW,328,15.0,21.0,-999,-99.99,,,-99.99,,2013-01-23 00:53:00,
2013-01-22 20:03:00,-999.0,-99.9,30.00,NW,320,9.0,20.0,-999,-99.99,,,-99.99,,2013-01-23 01:03:00,
2013-01-22 20:13:00,22.0,-99.9,30.00,NNW,328,15.0,21.0,-999,-99.99,,,-99.99,,2013-01-23 01:13:00,
2013-01-22 20:23:00,-999.0,-99.9,30.00,NW,314,12.0,21.0,-999,-99.99,,,-99.99,,2013-01-23 01:23:00,
2013-01-22 20:33:00,-999.0,-99.9,30.00,NW,308,13.0,20.0,-999,-99.99,,,-99.99,,2013-01-23 01:33:00,
2013-01-22 20:43:00,22.0,-99.9,30.01,NW,314,11.0,20.0,-999,-99.99,,,-99.99,,2013-01-23 01:43:00,
2013-01-22 20:53:00,-999.0,-99.9,30.01,NW,318,12.0,20.0,-999,-99.99,,,-99.99,,2013-01-23 01:53:00,
2013-01-22 21:03:00,-999.0,-99.9,30.01,NW,320,15.0,22.0,-999,-99.99,,,-99.99,,2013-01-23 02:03:00,
2013-01-22 21:13:00,-999.0,-99.9,30.02,NW,320,12.0,24.0,-999,-99.99,,,-99.99,,2013-01-23 02:13:00,
2013-01-22 21:23:00,-999.0,-99.9,30.02,NNW,327,13.0,21.0,-999,-99.99,,,-99.99,,2013-01-23 02:23:00,
2013-01-22 21:33:00,-999.0,-99.9,30.02,NW,305,11.0,19.0,-999,-99.99,,,-99.99,,2013-01-23 02:33:00,
2013-01-22 21:43:00,21.0,-99.9,30.03,NW,312,12.0,20.0,-999,-99.99,,,-99.99,,2013-01-23 02:43:00,
2013-01-22 21:54:00,-999.0,-99.9,30.03,NW,312,11.0,22.0,-999,-99.99,,,-99.99,,2013-01-23 02:54:00,
2013-01-22 22:03:00,-999.0,-99.9,30.03,NW,319,13.0,23.0,-999,-99.99,,,-99.99,,2013-01-23 03:03:00,
2013-01-22 22:13:00,21.0,-99.9,30.04,NW,322,14.0,25.0,-999,-99.99,,,-99.99,,2013-01-23 03:13:00,
2013-01-22 22:23:00,-999.0,-99.9,30.04,WNW,301,13.0,26.0,-999,-99.99,,,-99.99,,2013-01-23 03:23:00,
2013-01-22 22:33:00,-999.0,-99.9,30.05,NW,305,10.0,20.0,-999,-99.99,,,-99.99,,2013-01-23 03:33:00,
2013-01-22 22:43:00,-999.0,-99.9,30.05,NW,312,13.0,22.0,-999,-99.99,,,-99.99,,2013-01-23 03:43:00,
2013-01-22 22:53:00,-999.0,-99.9,30.05,NW,320,16.0,25.0,-999,-99.99,,,-99.99,,2013-01-23 03:53:00,
2013-01-22 23:04:00,-999.0,-99.9,30.05,WNW,303,14.0,24.0,-999,-99.99,,,-99.99,,2013-01-23 04:04:00,
2013-01-22 23:13:00,20.0,-99.9,30.05,NW,307,13.0,22.0,-999,-99.99,,,-99.99,,2013-01-23 04:13:00,
2013-01-22 23:23:00,-999.0,-99.9,30.06,WNW,301,14.0,21.0,-999,-99.99,,,-99.99,,2013-01-23 04:23:00,
2013-01-22 23:33:00,-999.0,-99.9,30.06,NW,312,13.0,23.0,-999,-99.99,,,-99.99,,2013-01-23 04:33:00,
2013-01-22 23:43:00,19.0,-99.9,30.06,NW,316,10.0,20.0,-999,-99.99,,,-99.99,,2013-01-23 04:43:00,
2013-01-22 23:53:00,-999.0,-99.9,30.06,NW,323,14.0,26.0,-999,-99.99,,,-99.99,,2013-01-23 04:53:00,